Time;durP1;ratioP1;P1;durP2;ratioP2;P2;SDS_P1;SDS_P2;PMS_P1;PMS_P2;Temp;Humidity;BMP_temperature;BMP_pressure;BME280_temperature;BME280_humidity;BME280_pressure;Samples;Min_cycle;Max_cycle;Signal;HPM_P1;HPM_P2
2022/11/05 00:10:15;;;;;;;8.27;5.10;;;6.00;99.90;;;;;;4987988;28;20497;-78
2022/11/05 00:18:09;;;;;;;13.35;5.20;;;6.10;99.90;;;;;;4988325;28;20050;-78
2022/11/05 00:20:34;;;;;;;8.43;4.72;;;6.20;99.90;;;;;;4988572;28;20065;-78
2022/11/05 00:26:00;;;;;;;8.38;4.55;;;6.30;99.90;;;;;;4988929;28;20054;-78
2022/11/05 00:28:27;;;;;;;12.02;4.60;;;6.30;99.90;;;;;;4987067;28;20500;-78
2022/11/05 00:30:58;;;;;;;7.93;4.32;;;6.30;99.90;;;;;;4986420;28;20093;-78
2022/11/05 00:33:23;;;;;;;8.90;4.40;;;6.40;99.90;;;;;;4986533;28;20038;-78
2022/11/05 00:35:49;;;;;;;10.63;4.20;;;6.40;99.90;;;;;;4988596;28;20464;-78
2022/11/05 00:38:15;;;;;;;8.35;4.22;;;6.40;99.90;;;;;;4988924;28;20098;-79
2022/11/05 00:40:40;;;;;;;7.00;3.80;;;6.40;99.90;;;;;;4987846;28;20050;-78
2022/11/05 00:45:50;;;;;;;5.53;3.70;;;6.30;99.90;;;;;;4988236;28;20054;-78
2022/11/05 00:51:00;;;;;;;6.07;3.47;;;6.30;99.90;;;;;;4969349;28;20121;-79
2022/11/05 00:53:26;;;;;;;6.03;3.53;;;6.30;99.90;;;;;;4970622;28;20089;-78
2022/11/05 00:55:51;;;;;;;8.93;3.95;;;6.30;99.90;;;;;;4987946;28;20078;-79
2022/11/05 00:58:19;;;;;;;7.88;3.55;;;6.30;99.90;;;;;;4986860;28;20050;-78
2022/11/05 01:00:49;;;;;;;5.88;3.75;;;6.30;99.90;;;;;;4987473;28;20134;-78
2022/11/05 01:03:17;;;;;;;8.05;4.20;;;6.30;99.90;;;;;;4986153;28;20092;-78
2022/11/05 01:05:46;;;;;;;8.60;3.80;;;6.30;99.90;;;;;;4987758;28;20054;-79
2022/11/05 01:08:13;;;;;;;6.45;3.80;;;6.30;99.90;;;;;;4986916;28;20034;-79
2022/11/05 01:10:41;;;;;;;5.60;3.85;;;6.30;99.90;;;;;;4988572;28;20087;-78
2022/11/05 01:13:07;;;;;;;8.50;3.53;;;6.30;99.90;;;;;;4988448;28;20050;-79
2022/11/05 01:15:34;;;;;;;7.07;3.58;;;6.30;99.90;;;;;;4986214;28;20665;-79
2022/11/05 01:18:00;;;;;;;7.88;3.50;;;6.20;99.90;;;;;;4986801;28;20060;-79
2022/11/05 01:20:26;;;;;;;10.07;4.03;;;6.20;99.90;;;;;;4981092;28;20050;-79
2022/11/05 01:22:51;;;;;;;6.15;3.95;;;6.20;99.90;;;;;;4980478;28;20050;-78
2022/11/05 01:25:17;;;;;;;6.57;3.05;;;6.10;99.90;;;;;;4986743;28;20053;-78
2022/11/05 01:27:42;;;;;;;6.68;3.28;;;6.10;99.90;;;;;;4983273;28;20042;-78
2022/11/05 01:30:09;;;;;;;6.75;3.20;;;6.00;99.90;;;;;;4988264;28;20038;-78
2022/11/05 01:32:35;;;;;;;14.05;3.90;;;6.00;99.90;;;;;;4990030;28;20078;-78
2022/11/05 01:35:02;;;;;;;7.18;3.42;;;6.00;99.90;;;;;;4985862;28;20082;-78
2022/11/05 01:37:28;;;;;;;11.20;3.78;;;5.90;99.90;;;;;;4989354;28;20056;-78
2022/11/05 01:39:53;;;;;;;5.43;3.10;;;5.90;99.90;;;;;;4985717;28;20049;-79
2022/11/05 01:42:21;;;;;;;6.75;3.30;;;5.80;99.90;;;;;;4985944;28;20054;-79
2022/11/05 01:44:53;;;;;;;7.18;3.15;;;5.80;99.90;;;;;;4970569;28;20054;-79
2022/11/05 01:47:48;;;;;;;7.30;2.95;;;5.80;99.90;;;;;;4985694;28;20050;-78
2022/11/05 01:50:29;;;;;;;6.22;3.40;;;5.70;99.90;;;;;;4980703;28;20050;-79
2022/11/05 01:53:19;;;;;;;6.88;3.30;;;5.70;99.90;;;;;;4986641;28;20053;-78
2022/11/05 01:55:52;;;;;;;6.80;3.38;;;5.60;99.90;;;;;;4977172;28;20053;-78
2022/11/05 01:58:23;;;;;;;6.65;3.75;;;5.60;99.90;;;;;;4985524;28;20077;-79
2022/11/05 02:00:49;;;;;;;12.87;3.87;;;5.60;99.90;;;;;;4983286;28;20053;-78
2022/11/05 02:03:16;;;;;;;6.85;3.67;;;5.60;99.90;;;;;;4985914;28;20050;-78
2022/11/05 02:05:43;;;;;;;8.20;3.83;;;5.50;99.90;;;;;;4969321;28;20038;-78
2022/11/05 02:08:16;;;;;;;6.07;3.58;;;5.50;99.90;;;;;;4988223;28;20372;-78
2022/11/05 02:10:44;;;;;;;9.90;4.15;;;5.50;99.90;;;;;;4980332;28;20086;-78
2022/11/05 02:13:09;;;;;;;7.15;3.67;;;5.50;99.90;;;;;;4984891;28;20100;-78
2022/11/05 02:16:06;;;;;;;7.15;3.70;;;5.50;99.90;;;;;;4990611;28;20450;-78
2022/11/05 02:18:42;;;;;;;7.43;3.92;;;5.50;99.90;;;;;;4987632;28;20035;-78
2022/11/05 02:21:32;;;;;;;7.10;4.05;;;5.40;99.90;;;;;;4991082;28;20509;-79
2022/11/05 02:24:09;;;;;;;7.57;4.38;;;5.30;99.90;;;;;;4989178;28;20058;-78
2022/11/05 02:26:48;;;;;;;5.60;3.88;;;5.30;99.90;;;;;;4990136;28;20473;-79
2022/11/05 02:29:39;;;;;;;9.90;4.35;;;5.30;99.90;;;;;;4988048;28;20050;-79
2022/11/05 02:32:28;;;;;;;9.98;4.40;;;5.30;99.90;;;;;;4987029;28;20137;-78
2022/11/05 02:35:06;;;;;;;10.48;5.30;;;5.30;99.90;;;;;;4989042;28;20043;-78
2022/11/05 02:37:39;;;;;;;7.85;4.05;;;5.30;99.90;;;;;;4987964;28;20130;-79
2022/11/05 02:40:16;;;;;;;6.43;4.45;;;5.20;99.90;;;;;;4986088;28;20089;-78
2022/11/05 02:43:21;;;;;;;8.93;4.28;;;5.20;99.90;;;;;;4990446;28;20058;-78
2022/11/05 02:46:13;;;;;;;8.10;4.38;;;5.20;99.90;;;;;;4989329;28;20050;-78
2022/11/05 02:48:44;;;;;;;10.75;4.80;;;5.20;99.90;;;;;;4988981;28;20038;-78
2022/11/05 02:51:30;;;;;;;9.93;4.97;;;5.20;99.90;;;;;;4989017;28;20096;-79
2022/11/05 02:54:18;;;;;;;9.15;4.97;;;5.30;99.90;;;;;;4987483;28;20819;-78
2022/11/05 02:56:48;;;;;;;9.95;4.60;;;5.30;99.90;;;;;;4986428;28;20053;-78
2022/11/05 02:59:13;;;;;;;9.13;4.50;;;5.80;99.90;;;;;;4984724;28;20046;-78
2022/11/05 03:01:42;;;;;;;7.13;4.55;;;5.30;99.90;;;;;;4989533;28;20049;-78
2022/11/05 03:04:10;;;;;;;7.00;4.57;;;5.30;99.90;;;;;;4985335;28;20046;-78
2022/11/05 03:06:44;;;;;;;7.47;4.72;;;5.30;99.90;;;;;;4985301;28;20051;-78
2022/11/05 03:09:29;;;;;;;7.63;4.70;;;5.30;99.90;;;;;;4972588;28;20054;-79
2022/11/05 03:12:04;;;;;;;7.40;4.68;;;5.30;99.90;;;;;;4986243;28;20046;-78
2022/11/05 03:14:41;;;;;;;8.75;4.70;;;5.20;99.90;;;;;;4989559;28;20058;-78
2022/11/05 03:17:48;;;;;;;9.30;5.13;;;5.20;99.90;;;;;;4987327;28;20575;-78
2022/11/05 03:20:18;;;;;;;10.70;4.53;;;5.20;99.90;;;;;;4969667;28;20134;-78
2022/11/05 03:23:09;;;;;;;9.75;5.50;;;5.20;99.90;;;;;;4988805;28;20039;-78
2022/11/05 03:25:42;;;;;;;8.55;4.90;;;5.20;99.90;;;;;;4995660;28;20058;-79
2022/11/05 03:28:08;;;;;;;;;;;5.20;99.90;;;;;;4988388;28;20042;-78
2022/11/05 03:30:36;;;;;;;7.30;4.13;;;5.20;99.90;;;;;;4987209;28;19929;-78
2022/11/05 03:33:08;;;;;;;9.93;5.00;;;5.20;99.90;;;;;;4986933;28;20113;-78
2022/11/05 03:35:39;;;;;;;7.32;4.45;;;5.20;99.90;;;;;;4973659;28;20161;-79
2022/11/05 03:38:10;;;;;;;7.55;4.50;;;5.10;99.90;;;;;;4988231;28;20050;-78
2022/11/05 03:40:37;;;;;;;6.85;4.75;;;5.10;99.90;;;;;;4986848;28;20046;-78
2022/11/05 03:43:06;;;;;;;4.88;4.18;;;5.10;99.90;;;;;;4985574;28;20061;-78
2022/11/05 03:45:40;;;;;;;9.45;4.93;;;5.10;99.90;;;;;;4987884;28;20038;-78
2022/11/05 03:48:09;;;;;;;8.82;4.80;;;5.10;99.90;;;;;;4987955;28;20865;-78
2022/11/05 03:50:43;;;;;;;9.88;4.65;;;5.10;99.90;;;;;;4985912;28;20448;-78
2022/11/05 03:53:22;;;;;;;9.65;4.82;;;5.10;99.90;;;;;;4986612;28;20048;-79
2022/11/05 03:56:02;;;;;;;8.90;4.72;;;5.10;99.90;;;;;;4987850;28;20185;-79
2022/11/05 03:58:29;;;;;;;8.77;5.30;;;5.00;99.90;;;;;;4987135;28;20041;-78
2022/11/05 04:00:57;;;;;;;8.73;5.25;;;5.00;99.90;;;;;;4987692;28;20121;-78
2022/11/05 04:03:23;;;;;;;8.10;5.20;;;5.00;99.90;;;;;;4988435;28;20076;-78
2022/11/05 04:13:22;;;;;;;12.63;4.90;;;5.00;99.90;;;;;;4993138;28;20065;-78
2022/11/05 04:14:06;;;;;;;10.70;5.35;;;5.00;99.90;;;;;;4989508;28;20058;-78
2022/11/05 04:24:06;;;;;;;7.82;4.85;;;5.10;99.90;;;;;;4970483;28;20050;-78
2022/11/05 04:24:45;;;;;;;12.88;5.88;;;5.20;99.90;;;;;;4986993;28;20551;-78
2022/11/05 04:27:10;;;;;;;11.43;5.10;;;5.10;99.90;;;;;;4986674;28;20039;-78
2022/11/05 04:32:20;;;;;;;11.27;5.20;;;5.10;99.90;;;;;;4987128;28;20054;-78
2022/11/05 04:34:46;;;;;;;10.60;5.55;;;5.00;99.90;;;;;;4986489;28;20046;-79
2022/11/05 04:37:14;;;;;;;7.28;5.22;;;5.00;99.90;;;;;;4981895;28;20129;-79
2022/11/05 04:39:40;;;;;;;9.23;4.78;;;5.00;99.90;;;;;;4984367;28;20092;-78
2022/11/05 04:42:05;;;;;;;7.82;5.40;;;5.00;99.90;;;;;;4987412;28;20062;-78
2022/11/05 04:44:33;;;;;;;11.43;5.30;;;5.00;99.90;;;;;;4988705;28;20046;-78
2022/11/05 04:46:59;;;;;;;6.97;4.80;;;5.00;99.90;;;;;;4988010;28;20074;-78
2022/11/05 04:49:25;;;;;;;8.30;4.72;;;4.90;99.90;;;;;;4989246;28;20113;-78
2022/11/05 04:51:50;;;;;;;10.13;5.38;;;5.00;99.90;;;;;;4986487;28;20049;-78
2022/11/05 04:54:16;;;;;;;7.85;4.82;;;5.00;99.90;;;;;;4988485;28;20052;-79
2022/11/05 04:56:42;;;;;;;9.07;4.60;;;4.90;99.90;;;;;;4968568;28;20050;-78
2022/11/05 04:59:07;;;;;;;7.68;4.72;;;5.00;99.90;;;;;;4987185;28;20038;-79
2022/11/05 05:01:33;;;;;;;9.85;4.82;;;4.90;99.90;;;;;;4987158;28;20042;-79
2022/11/05 05:04:00;;;;;;;8.68;4.95;;;4.90;99.90;;;;;;4986045;28;21078;-79
2022/11/05 05:06:38;;;;;;;5.78;5.05;;;4.90;99.90;;;;;;4964519;28;20373;-79
2022/11/05 05:09:04;;;;;;;9.48;4.43;;;4.90;99.90;;;;;;4987378;28;20042;-79
2022/11/05 05:11:29;;;;;;;6.82;3.85;;;4.90;99.90;;;;;;4983266;28;20057;-79
2022/11/05 05:13:55;;;;;;;7.82;4.47;;;4.90;99.90;;;;;;4986172;28;20465;-79
2022/11/05 05:16:25;;;;;;;10.45;4.93;;;4.90;99.90;;;;;;4986087;28;20373;-79
2022/11/05 05:18:52;;;;;;;12.80;4.78;;;4.90;99.90;;;;;;4986521;28;20140;-79
2022/11/05 05:21:37;;;;;;;8.95;5.07;;;4.90;99.90;;;;;;4984885;28;20133;-79
2022/11/05 05:24:04;;;;;;;9.10;5.03;;;4.90;99.90;;;;;;4983287;28;20054;-78
2022/11/05 05:26:33;;;;;;;7.15;4.97;;;4.90;99.90;;;;;;4984261;28;20484;-78
2022/11/05 05:29:02;;;;;;;8.48;4.85;;;4.90;99.90;;;;;;4985408;28;20052;-78
2022/11/05 05:31:27;;;;;;;7.18;4.53;;;4.90;99.90;;;;;;4982244;28;20050;-79
2022/11/05 05:33:53;;;;;;;9.35;5.00;;;4.90;99.90;;;;;;4984600;28;20054;-78
2022/11/05 05:36:19;;;;;;;9.70;5.00;;;4.90;99.90;;;;;;4986252;28;20046;-79
2022/11/05 05:38:45;;;;;;;8.80;5.15;;;4.90;99.90;;;;;;4988318;28;20137;-78
2022/11/05 05:41:13;;;;;;;6.63;5.22;;;4.80;99.90;;;;;;4985621;28;20134;-79
2022/11/05 05:43:39;;;;;;;10.85;5.40;;;4.90;99.90;;;;;;4986795;28;20042;-79
2022/11/05 05:46:06;;;;;;;7.43;4.75;;;4.70;99.90;;;;;;4986946;28;20416;-79
2022/11/05 05:48:33;;;;;;;11.00;5.53;;;4.80;99.90;;;;;;4988510;28;20053;-78
2022/11/05 05:51:03;;;;;;;8.05;4.97;;;4.80;99.90;;;;;;4990280;28;20531;-79
2022/11/05 05:53:29;;;;;;;11.02;5.72;;;4.70;99.90;;;;;;4991838;28;20053;-79
2022/11/05 05:55:56;;;;;;;7.15;4.72;;;4.70;99.90;;;;;;4989819;28;20046;-79
2022/11/05 05:58:23;;;;;;;11.10;4.78;;;4.70;99.90;;;;;;4987192;28;20081;-78
2022/11/05 06:00:48;;;;;;;11.07;4.75;;;4.70;99.90;;;;;;4990871;28;20496;-78
2022/11/05 06:03:14;;;;;;;8.85;5.00;;;4.60;99.90;;;;;;4988944;28;20058;-78
2022/11/05 06:05:40;;;;;;;13.70;5.13;;;4.60;99.90;;;;;;4999223;28;20069;-79
2022/11/05 06:08:05;;;;;;;6.75;5.20;;;4.60;99.90;;;;;;4974300;28;20058;-78
2022/11/05 06:10:31;;;;;;;7.00;4.55;;;4.50;99.90;;;;;;4990207;28;20038;-78
2022/11/05 06:13:03;;;;;;;10.98;4.72;;;4.50;99.90;;;;;;4989580;28;20401;-79
2022/11/05 06:15:28;;;;;;;7.13;4.60;;;4.50;99.90;;;;;;4987037;28;20054;-79
2022/11/05 06:17:54;;;;;;;7.82;5.13;;;4.50;99.90;;;;;;4988273;28;20042;-78
2022/11/05 06:20:19;;;;;;;8.85;4.85;;;4.50;99.90;;;;;;4989325;28;20042;-78
2022/11/05 06:22:55;;;;;;;10.68;4.88;;;4.50;99.90;;;;;;4989217;28;20045;-78
2022/11/05 06:25:21;;;;;;;9.02;4.43;;;4.50;99.90;;;;;;4988191;28;20104;-78
2022/11/05 06:27:46;;;;;;;6.75;4.93;;;4.40;99.90;;;;;;4999303;28;20451;-78
2022/11/05 06:30:12;;;;;;;6.35;4.78;;;4.40;99.90;;;;;;4972164;28;20480;-78
2022/11/05 06:32:37;;;;;;;7.65;4.75;;;4.40;99.90;;;;;;4982642;28;20046;-78
2022/11/05 06:35:03;;;;;;;7.68;5.18;;;4.40;99.90;;;;;;4987098;28;20056;-78
2022/11/05 06:37:32;;;;;;;11.00;4.70;;;4.40;99.90;;;;;;4986439;28;20078;-78
2022/11/05 06:39:58;;;;;;;8.20;4.82;;;4.40;99.90;;;;;;4986936;28;20132;-78
2022/11/05 06:42:24;;;;;;;9.23;4.85;;;4.70;99.90;;;;;;4983637;28;20065;-78
2022/11/05 06:44:49;;;;;;;6.78;4.60;;;4.30;99.90;;;;;;4985000;28;20445;-79
2022/11/05 06:47:15;;;;;;;7.13;4.80;;;4.30;99.90;;;;;;5000570;28;20049;-78
2022/11/05 06:49:40;;;;;;;6.45;4.55;;;4.30;99.90;;;;;;4994078;28;20042;-79
2022/11/05 06:52:06;;;;;;;11.25;6.10;;;4.40;99.90;;;;;;4998903;28;20046;-79
2022/11/05 06:54:31;;;;;;;5.28;4.28;;;4.50;99.90;;;;;;4985086;28;20445;-79
2022/11/05 06:56:57;;;;;;;7.68;5.22;;;4.40;99.90;;;;;;5001226;28;20420;-79
2022/11/05 06:59:22;;;;;;;9.07;5.40;;;4.50;99.90;;;;;;4989084;28;20400;-79
2022/11/05 07:01:48;;;;;;;10.35;5.97;;;4.50;99.90;;;;;;4989921;28;20416;-79
2022/11/05 07:04:14;;;;;;;6.53;5.32;;;4.50;99.90;;;;;;4976942;28;20062;-79
2022/11/05 07:06:39;;;;;;;10.88;5.65;;;4.50;99.90;;;;;;4975027;28;20173;-79
2022/11/05 07:09:05;;;;;;;14.80;6.15;;;4.50;99.90;;;;;;4989925;28;20054;-79
2022/11/05 07:11:30;;;;;;;11.27;5.35;;;4.50;99.90;;;;;;4990241;28;20038;-79
2022/11/05 07:13:56;;;;;;;11.02;5.43;;;4.50;99.90;;;;;;4989744;28;20046;-79
2022/11/05 07:16:21;;;;;;;9.35;5.53;;;4.60;99.90;;;;;;4990555;28;20096;-79
2022/11/05 07:18:47;;;;;;;12.75;6.85;;;4.60;99.90;;;;;;4980427;28;20098;-79
2022/11/05 07:21:12;;;;;;;11.02;6.93;;;4.60;99.90;;;;;;4969694;28;20105;-79
2022/11/05 07:23:38;;;;;;;10.95;7.65;;;4.90;99.90;;;;;;4971668;28;20121;-79
2022/11/05 07:26:04;;;;;;;9.90;7.43;;;4.70;99.90;;;;;;4988776;28;20046;-78
2022/11/05 07:28:29;;;;;;;10.05;6.60;;;4.80;99.90;;;;;;4972491;28;20125;-79
2022/11/05 07:30:57;;;;;;;11.07;6.90;;;4.80;99.90;;;;;;4990235;28;20051;-79
2022/11/05 07:33:23;;;;;;;9.82;6.90;;;4.90;99.90;;;;;;4989779;28;20492;-78
2022/11/05 07:35:57;;;;;;;9.50;6.75;;;5.00;99.90;;;;;;4990513;28;20049;-78
2022/11/05 07:38:23;;;;;;;9.40;7.30;;;5.00;99.90;;;;;;4988313;28;20793;-78
2022/11/05 07:40:48;;;;;;;12.65;7.25;;;5.10;99.90;;;;;;4969313;28;20055;-78
2022/11/05 07:43:14;;;;;;;9.75;6.70;;;5.10;99.90;;;;;;4985463;28;20077;-78
2022/11/05 07:45:40;;;;;;;9.27;7.35;;;5.20;99.90;;;;;;4990113;28;20050;-78
2022/11/05 07:48:05;;;;;;;11.07;6.35;;;5.20;99.90;;;;;;4987961;28;20042;-78
2022/11/05 07:50:38;;;;;;;12.05;7.18;;;5.20;99.90;;;;;;4989950;28;20085;-78
2022/11/05 07:53:12;;;;;;;9.48;6.50;;;5.30;99.90;;;;;;4989877;28;20042;-78
2022/11/05 07:55:39;;;;;;;9.18;7.28;;;5.30;99.90;;;;;;4989861;28;20045;-78
2022/11/05 07:58:05;;;;;;;10.07;6.85;;;5.40;99.90;;;;;;4989013;28;20807;-78
2022/11/05 08:00:31;;;;;;;8.93;7.30;;;5.50;99.90;;;;;;4989189;28;20126;-78
2022/11/05 08:03:04;;;;;;;13.75;6.80;;;5.60;99.90;;;;;;4988816;28;20081;-78
2022/11/05 08:05:33;;;;;;;13.52;7.00;;;5.60;99.90;;;;;;4990222;28;20198;-78
2022/11/05 08:08:02;;;;;;;11.82;7.50;;;5.70;99.90;;;;;;4990140;28;20047;-79
2022/11/05 08:10:31;;;;;;;9.63;6.93;;;6.00;99.90;;;;;;4989105;28;20046;-79
2022/11/05 08:13:00;;;;;;;15.40;7.90;;;5.80;99.90;;;;;;4988721;28;20066;-79
2022/11/05 08:15:25;;;;;;;13.18;8.35;;;5.90;99.90;;;;;;4988667;28;20088;-80
2022/11/05 08:18:02;;;;;;;10.13;7.38;;;6.00;99.90;;;;;;4989322;28;21096;-81
2022/11/05 08:20:28;;;;;;;13.63;7.65;;;6.10;99.90;;;;;;4988391;28;20078;-79
2022/11/05 08:22:55;;;;;;;10.52;7.10;;;6.20;99.90;;;;;;4972351;28;20051;-79
2022/11/05 08:25:21;;;;;;;12.85;7.35;;;6.30;99.90;;;;;;4988618;28;20042;-79
2022/11/05 08:27:47;;;;;;;11.23;6.80;;;6.40;99.90;;;;;;4987798;28;20061;-79
2022/11/05 08:30:12;;;;;;;9.40;6.72;;;6.50;99.90;;;;;;4985880;28;20042;-79
2022/11/05 08:32:38;;;;;;;7.78;6.70;;;6.60;99.90;;;;;;4970151;28;20357;-78
2022/11/05 08:35:04;;;;;;;9.63;6.65;;;6.60;99.90;;;;;;4969684;28;20049;-80
2022/11/05 08:37:30;;;;;;;8.57;6.75;;;6.70;99.90;;;;;;4970298;28;20051;-79
2022/11/05 08:39:55;;;;;;;11.95;8.75;;;6.80;99.90;;;;;;4987630;28;20501;-82
2022/11/05 08:42:21;;;;;;;10.38;7.53;;;6.90;99.90;;;;;;4977569;28;20050;-81
2022/11/05 08:44:46;;;;;;;8.35;6.88;;;7.60;99.90;;;;;;4979417;28;20129;-79
2022/11/05 08:47:12;;;;;;;10.80;7.25;;;7.10;99.90;;;;;;4969571;28;20038;-80
2022/11/05 08:49:38;;;;;;;9.85;7.40;;;7.30;99.90;;;;;;4969806;28;20057;-79
2022/11/05 08:52:03;;;;;;;10.27;7.57;;;7.40;99.90;;;;;;4969848;28;20047;-79
2022/11/05 08:54:29;;;;;;;9.48;6.68;;;7.50;99.90;;;;;;4968213;28;20051;-79
2022/11/05 08:56:54;;;;;;;8.00;6.65;;;7.50;99.90;;;;;;4982651;28;20053;-79
2022/11/05 08:59:20;;;;;;;9.65;6.45;;;7.70;99.90;;;;;;4982290;28;20123;-79
2022/11/05 09:01:46;;;;;;;7.15;5.82;;;7.80;99.90;;;;;;4969830;28;20046;-78
2022/11/05 09:04:11;;;;;;;9.55;5.80;;;7.90;99.90;;;;;;4988290;28;20050;-78
2022/11/05 09:06:37;;;;;;;9.88;6.47;;;8.00;99.90;;;;;;4988997;28;20073;-79
2022/11/05 09:09:02;;;;;;;9.25;6.55;;;8.10;99.90;;;;;;4987759;28;20552;-78
2022/11/05 09:11:28;;;;;;;7.57;5.40;;;8.20;99.90;;;;;;4986401;28;20131;-79
2022/11/05 09:13:54;;;;;;;6.28;5.57;;;8.20;99.90;;;;;;4988873;28;20140;-80
2022/11/05 09:16:22;;;;;;;5.53;4.85;;;8.30;99.90;;;;;;4988766;28;20038;-80
2022/11/05 09:18:49;;;;;;;7.05;4.82;;;8.40;99.90;;;;;;4968445;28;20047;-79
2022/11/05 09:21:16;;;;;;;6.68;4.50;;;8.50;99.90;;;;;;4976034;28;20034;-79
2022/11/05 09:23:42;;;;;;;7.75;4.78;;;8.70;99.90;;;;;;4981319;28;20055;-79
2022/11/05 09:26:09;;;;;;;6.28;4.53;;;8.80;99.90;;;;;;4989752;28;20097;-78
2022/11/05 09:28:34;;;;;;;6.88;4.40;;;8.90;99.90;;;;;;4993061;28;20055;-80
2022/11/05 09:31:08;;;;;;;5.53;3.97;;;8.90;99.90;;;;;;4974507;28;20053;-79
2022/11/05 09:33:36;;;;;;;9.88;4.78;;;9.00;99.90;;;;;;4991444;28;20550;-80
2022/11/05 09:36:01;;;;;;;4.25;3.58;;;9.10;99.90;;;;;;4992448;28;20046;-78
2022/11/05 09:38:27;;;;;;;4.60;3.83;;;9.10;99.90;;;;;;4990427;28;20054;-79
2022/11/05 09:41:25;;;;;;;5.97;3.80;;;9.20;99.90;;;;;;4981129;28;20054;-79
2022/11/05 09:43:56;;;;;;;5.95;3.83;;;9.30;99.90;;;;;;4972543;28;20061;-79
2022/11/05 09:46:24;;;;;;;8.85;4.65;;;9.40;99.90;;;;;;4988110;28;20053;-79
2022/11/05 09:49:05;;;;;;;5.43;3.70;;;9.40;99.90;;;;;;4991653;28;20108;-78
2022/11/05 09:51:31;;;;;;;6.22;4.38;;;9.60;99.90;;;;;;4991034;28;20777;-79
2022/11/05 09:54:00;;;;;;;5.05;4.25;;;9.70;99.90;;;;;;4991112;28;20038;-79
2022/11/05 09:56:30;;;;;;;8.25;4.82;;;9.70;99.90;;;;;;4976958;28;20046;-79
2022/11/05 09:59:17;;;;;;;6.10;4.15;;;9.90;99.90;;;;;;4979827;28;20054;-80
2022/11/05 10:01:46;;;;;;;4.30;3.40;;;10.00;99.90;;;;;;4985427;28;20038;-80
2022/11/05 10:04:30;;;;;;;7.43;3.90;;;10.00;99.90;;;;;;5004569;28;20566;-80
2022/11/05 10:07:04;;;;;;;5.47;4.00;;;10.20;99.90;;;;;;4991327;28;20125;-79
2022/11/05 10:09:44;;;;;;;5.13;4.00;;;10.20;99.90;;;;;;4993444;28;20092;-79
2022/11/05 10:12:23;;;;;;;6.28;4.00;;;10.40;99.90;;;;;;4989520;28;20137;-79
2022/11/05 10:15:21;;;;;;;6.40;3.95;;;10.50;99.90;;;;;;4989116;28;20093;-79
2022/11/05 10:17:52;;;;;;;6.78;3.70;;;10.50;99.90;;;;;;4971331;28;20563;-79
2022/11/05 10:20:35;;;;;;;5.30;3.70;;;10.60;99.90;;;;;;4990566;28;20068;-79
2022/11/05 10:23:10;;;;;;;5.65;3.55;;;11.60;99.90;;;;;;4990095;28;20763;-79
2022/11/05 10:25:38;;;;;;;4.50;2.95;;;10.80;99.90;;;;;;4988417;28;20050;-79
2022/11/05 10:28:06;;;;;;;4.93;3.53;;;10.90;99.90;;;;;;4988829;28;20057;-84
2022/11/05 10:30:32;;;;;;;5.15;3.08;;;10.90;99.90;;;;;;4989641;28;20054;-85
2022/11/05 10:33:02;;;;;;;6.00;3.20;;;10.90;99.90;;;;;;4949373;28;20423;-84
2022/11/05 10:35:31;;;;;;;5.32;3.35;;;10.90;99.90;;;;;;4989328;28;20053;-85
2022/11/05 10:37:57;;;;;;;7.45;3.42;;;11.00;99.90;;;;;;4983708;28;20081;-83
2022/11/05 10:40:23;;;;;;;5.78;3.53;;;11.10;99.90;;;;;;4933588;28;20142;-85
2022/11/05 10:43:03;;;;;;;3.65;3.20;;;;;;;;;;4989021;28;20050;-85
2022/11/05 10:45:46;;;;;;;3.67;2.92;;;11.30;99.90;;;;;;4989514;28;20058;-80
2022/11/05 10:48:37;;;;;;;3.45;2.83;;;11.40;99.90;;;;;;4988959;28;20524;-79
2022/11/05 10:51:05;;;;;;;4.38;3.03;;;11.40;99.90;;;;;;4987412;28;20064;-79
2022/11/05 10:53:34;;;;;;;4.30;2.67;;;11.40;99.90;;;;;;4972848;28;20360;-79
2022/11/05 10:56:00;;;;;;;5.38;2.67;;;11.30;99.90;;;;;;4992748;28;20120;-80
2022/11/05 10:58:29;;;;;;;5.72;2.60;;;11.30;99.90;;;;;;4992729;28;20445;-79
2022/11/05 11:00:54;;;;;;;5.78;2.65;;;11.30;99.90;;;;;;4988397;28;20046;-80
2022/11/05 11:03:43;;;;;;;3.70;2.60;;;11.20;99.90;;;;;;4989967;28;20487;-80
2022/11/05 11:06:18;;;;;;;4.47;2.88;;;11.20;99.90;;;;;;4988029;28;20436;-80
2022/11/05 11:08:46;;;;;;;5.75;2.88;;;11.30;99.90;;;;;;4968966;28;20497;-80
2022/11/05 11:11:24;;;;;;;5.80;2.70;;;11.30;99.90;;;;;;4950637;28;20569;-79
2022/11/05 11:14:02;;;;;;;3.78;2.63;;;11.40;99.90;;;;;;4989668;28;20057;-78
2022/11/05 11:16:33;;;;;;;6.45;2.63;;;11.40;99.90;;;;;;4987945;28;20518;-79
2022/11/05 11:19:00;;;;;;;6.38;2.78;;;11.40;99.90;;;;;;4972083;28;20050;-79
2022/11/05 11:21:27;;;;;;;6.55;3.20;;;11.40;99.90;;;;;;4987676;28;20045;-79
2022/11/05 11:23:58;;;;;;;4.03;2.85;;;11.50;99.90;;;;;;4988323;28;20046;-79
2022/11/05 11:26:27;;;;;;;4.43;2.83;;;11.60;99.90;;;;;;4969897;28;20054;-80
2022/11/05 11:28:58;;;;;;;3.95;2.83;;;11.60;99.90;;;;;;4972145;28;20074;-79
2022/11/05 11:31:30;;;;;;;3.90;2.10;;;11.70;99.90;;;;;;4986728;28;20117;-80
2022/11/05 11:34:01;;;;;;;3.30;1.85;;;12.20;99.90;;;;;;4989067;28;20061;-80
2022/11/05 11:36:42;;;;;;;3.88;2.00;;;11.90;99.90;;;;;;4971790;28;20046;-80
2022/11/05 11:39:18;;;;;;;3.25;2.15;;;11.90;99.90;;;;;;4985774;28;20167;-80
2022/11/05 11:41:51;;;;;;;3.67;2.03;;;12.00;99.90;;;;;;4987053;28;20050;-79
2022/11/05 11:44:23;;;;;;;7.07;2.20;;;12.00;99.90;;;;;;4984772;28;20132;-80
2022/11/05 11:46:51;;;;;;;3.78;2.35;;;12.00;99.90;;;;;;4971667;28;20428;-79
2022/11/05 11:49:52;;;;;;;5.00;2.10;;;11.90;99.90;;;;;;4979380;28;20505;-80
2022/11/05 11:52:30;;;;;;;3.53;1.90;;;11.80;99.90;;;;;;4967170;28;20078;-79
2022/11/05 11:55:09;;;;;;;3.75;1.90;;;11.90;99.90;;;;;;4985648;28;20069;-79
2022/11/05 11:57:44;;;;;;;7.68;2.42;;;11.90;99.90;;;;;;4993497;28;20041;-79
2022/11/05 12:00:10;;;;;;;3.50;1.90;;;11.80;99.90;;;;;;4987820;28;20061;-79
2022/11/05 12:02:47;;;;;;;5.35;2.42;;;11.80;99.90;;;;;;4968458;28;20051;-80
2022/11/05 12:05:28;;;;;;;4.90;1.77;;;11.70;99.90;;;;;;4969207;28;20050;-77
2022/11/05 12:07:59;;;;;;;4.05;1.60;;;11.70;99.90;;;;;;4984263;28;20073;-80
2022/11/05 12:10:41;;;;;;;3.67;1.80;;;11.70;99.90;;;;;;4968714;28;20383;-80
2022/11/05 12:13:27;;;;;;;6.18;2.00;;;11.70;99.90;;;;;;4981422;28;20140;-78
2022/11/05 12:16:03;;;;;;;3.47;2.13;;;11.70;99.90;;;;;;4985135;28;20052;-79
2022/11/05 12:18:42;;;;;;;4.20;2.20;;;11.60;99.90;;;;;;4957846;28;20051;-79
2022/11/05 12:21:21;;;;;;;2.55;2.13;;;11.60;99.90;;;;;;4983217;28;20042;-79
2022/11/05 12:24:05;;;;;;;5.40;2.78;;;11.60;99.90;;;;;;4995552;28;20470;-79
2022/11/05 12:27:19;;;;;;;3.78;2.70;;;11.60;99.90;;;;;;4987329;28;20141;-78
2022/11/05 12:30:01;;;;;;;6.60;3.03;;;11.60;99.90;;;;;;4968184;28;20536;-80
2022/11/05 12:32:38;;;;;;;6.57;3.47;;;11.50;99.90;;;;;;4968181;28;20177;-79
2022/11/05 12:35:17;;;;;;;6.50;3.03;;;11.50;99.90;;;;;;4951969;28;20051;-80
2022/11/05 12:38:03;;;;;;;5.88;3.78;;;11.60;99.90;;;;;;4967872;28;20053;-79
2022/11/05 12:40:56;;;;;;;7.70;4.75;;;11.60;99.90;;;;;;4986846;28;20054;-79
2022/11/05 12:43:57;;;;;;;4.05;3.00;;;11.60;99.90;;;;;;4985226;28;20050;-79
2022/11/05 12:46:50;;;;;;;7.10;3.28;;;11.60;99.90;;;;;;4962299;28;20054;-80
2022/11/05 12:49:45;;;;;;;8.13;3.60;;;11.70;99.90;;;;;;4969233;28;20528;-80
2022/11/05 12:52:20;;;;;;;4.65;4.15;;;11.70;99.90;;;;;;4967409;28;20370;-80
2022/11/05 12:55:02;;;;;;;6.35;4.65;;;11.70;99.90;;;;;;4967336;28;20050;-80
2022/11/05 12:57:30;;;;;;;6.07;3.65;;;11.70;99.90;;;;;;4967277;28;20054;-80
2022/11/05 13:00:22;;;;;;;4.93;3.83;;;11.70;99.90;;;;;;4983924;28;20050;-80
2022/11/05 13:03:06;;;;;;;8.23;4.15;;;11.70;99.90;;;;;;4979765;28;20042;-79
2022/11/05 13:05:34;;;;;;;7.60;6.18;;;11.70;99.90;;;;;;4968858;28;20054;-80
2022/11/05 13:08:06;;;;;;;6.90;3.88;;;11.80;99.90;;;;;;4951510;28;20134;-80
2022/11/05 13:10:53;;;;;;;10.55;4.65;;;11.80;99.90;;;;;;4967561;28;20051;-80
2022/11/05 13:13:32;;;;;;;7.45;5.03;;;11.90;99.90;;;;;;4967545;28;20094;-80
2022/11/05 13:16:25;;;;;;;7.30;4.20;;;11.90;99.90;;;;;;4966882;28;20106;-80
2022/11/05 13:18:56;;;;;;;6.95;4.35;;;11.90;99.90;;;;;;4979369;28;20093;-80
2022/11/05 13:21:25;;;;;;;5.90;4.13;;;12.60;99.90;;;;;;4985916;28;20121;-80
2022/11/05 13:24:29;;;;;;;7.38;4.38;;;11.90;99.90;;;;;;4986552;28;20054;-80
2022/11/05 13:27:04;;;;;;;6.80;4.47;;;12.00;99.90;;;;;;4952292;28;20312;-80
2022/11/05 13:29:51;;;;;;;5.53;3.30;;;12.00;99.90;;;;;;4987828;28;20066;-80
2022/11/05 13:32:39;;;;;;;5.38;3.45;;;12.00;99.90;;;;;;4970686;28;20140;-80
2022/11/05 13:35:14;;;;;;;6.10;4.20;;;12.00;99.90;;;;;;4978506;28;20488;-80
2022/11/05 13:40:43;;;;;;;6.65;3.92;;;11.90;99.90;;;;;;4967498;28;20078;-79
2022/11/05 13:43:15;;;;;;;6.65;4.05;;;11.90;99.90;;;;;;4967260;28;20523;-80
2022/11/05 13:45:53;;;;;;;7.32;4.40;;;11.90;99.90;;;;;;4966968;28;20046;-80
2022/11/05 13:48:54;;;;;;;8.27;5.40;;;11.80;99.90;;;;;;4966805;28;20098;-79
2022/11/05 13:51:45;;;;;;;8.63;4.40;;;11.80;99.90;;;;;;4950605;28;20062;-80
2022/11/05 13:54:29;;;;;;;6.68;4.57;;;11.70;99.90;;;;;;4982602;28;20050;-80
2022/11/05 13:57:12;;;;;;;7.10;4.53;;;11.60;99.90;;;;;;4987754;28;20049;-80